Cannon Air Force Base
KCVS : now visible

Airfield :











YOU CAN JOIN US ON...

 
LOGIN :

Register | Disclaimer

   EN    FR    IT 

 









Legend :    VFR   Marginal VFR   IFR   Intensive IFR   Very Intensive IFR
Visi :
Ceiling :
>= 8 km
>= 3000ft
5 to 8 km
1000 to 3000 ft
1500m to 5 km
500 to 1000 ft
800 to 1500m
200 to 500 ft
< 800m
< 200 ft
Symbols :   Thunderstorms  Fog  Heavy snow  Heavy precipitations  Wind > 20 kt






- Airport Elevation : 4295 ft


KCVS - Cannon Air Force Base

CURRENT METAR :
  • 191058Z AUTO 13003KT 10SM CLR 17/14 A3011 RMK AO2 SLP137 T01660135 $

EXPIRED METARs :
  • 190958Z AUTO 19005KT 10SM CLR 17/14 A3012 RMK AO2 SLP140 T01740137 $
  • 190858Z AUTO 18003KT 10SM CLR 17/14 A3013 RMK AO2 SLP144 T01720135 57008 $

TAF TAF KCVS
Valid from the 19 at 10:00 until the 20 at 16:00 UTC


191000Z 1910/2016 VRB06KT 9999 SKC QNH3010INS
BECMG 1915/1916 21010G15KT 9999 SKC QNH3010INS
BECMG 1917/1918 23012G20KT 9999 SKC QNH3005INS
BECMG 1923/1924 21010KT 9999 FEW120 QNH2991INS WND VRB06KT AFT 0500
BECMG 2015/2016 27010KT 9999 SKC QNH2999INS TX32/1922Z TN17/1912Z
KZAB FIR / North America



MET'MAP, your aeronautical weather chart ! - Copyright ORBIFLY December 2007 - Disclaimer

ORBIFLY MET'MAP TEAM :

Programming & Development : Alexandra Zaïnal
Concept & original design : Baudouin d'Aumeries
Assistance for programming : Marc-Olivier Méhu
Technical & hardware support : Manuel Goepfert

Contact : metmap@orbifly.com




SOURCES & CREDITS :

   NOAA       Earth
Advisory